KACT/ACT METAR and TAF weather

Enter ICAO airport designator
Station Type Date Time Source
KACT METAR 2020/04/09 18:51 UTC NOAA

KACT 091851Z 01007KT 10SM CLR 24/18 A2985 RMK AO2 SLP100 T02440183


Station Type Date Time Source
KACT Decoded METAR 2020/04/09 18:51 UTC NOAA

WACO REGIONAL AIRPORT, TX, United States (KACT) 31-36N 97-13W 151M
Apr 09, 2020 - 02:51 PM EDT / 2020.04.09 1851 UTC
Wind: from the N (010 degrees) at 8 MPH (7 KT):0
Visibility: 10 mile(s):0
Sky conditions: clear
Temperature: 75.9 F (24.4 C)
Dew Point: 64.9 F (18.3 C)
Relative Humidity: 68%
Pressure (altimeter): 29.85 in. Hg (1010 hPa)
ob: KACT 091851Z 01007KT 10SM CLR 24/18 A2985 RMK AO2 SLP100 T02440183
cycle: 19

Station Type Date Time Source
KACT TAF 2020/04/09 18:33 UTC NOAA

TAF KACT 091730Z 0918/1018 01004KT P6SM BKN100
FM092100 35007KT P6SM -SHRA VCTS OVC080CB
FM100100 35007KT P6SM FEW080 OVC150
FM100800 02007KT P6SM BKN040

Example: see airport list